ENRA/MQN METAR and TAF weather

Enter ICAO airport designator
Station Type Date Time Source
ENRA METAR 2022/01/26 08:20 UTC NOAA

ENRA 260820Z VRB01KT 9999 -SN FEW006 SCT020 BKN030 M01/M01 Q0997


Station Type Date Time Source
ENRA Decoded METAR 2022/01/26 08:20 UTC NOAA

Mo I Rana / Rossvoll, Norway (ENRA) 66-22N 014-18E 70M
Jan 26, 2022 - 03:20 AM EST / 2022.01.26 0820 UTC
Wind: Variable at 1 MPH (1 KT):0
Visibility: greater than 7 mile(s):0
Sky conditions: mostly cloudy
Weather: light snow
Temperature: 30 F (-1 C)
Dew Point: 30 F (-1 C)
Relative Humidity: 100%
Pressure (altimeter): 29.44 in. Hg (0997 hPa)
ob: ENRA 260820Z VRB01KT 9999 -SN FEW006 SCT020 BKN030 M01/M01 Q0997
cycle: 8

Station Type Date Time Source
ENRA TAF UTC NOAA

Error!

Example: see airport list